Terminal Aerodrome Forecast
Issued by NWS

Home | Current Version | Previous Version | Text Only | Print | Product List | Glossary On
Versions: 1 2 3 4 5 6 7 8 9 10 11 12 13 14 15 16 17 18 19
000
FTUS43 KDTX 201121
TAFDTW
TAF

TAF
KMBS 201121Z 2012/2112 VRB03KT 2SM BR BKN012 OVC040
      TEMPO 2012/2013 1SM BR OVC006
     FM201600 15005KT 5SM BR BKN014 OVC040
     FM201800 18007KT P6SM BKN028
     FM202100 16005KT P6SM SCT035 BKN120
     FM210800 16005KT 4SM BR SCT008 OVC030=

USA.gov is the U.S. government's official web portal to all federal, state and local government web resources and services.